createdAt,value
2019-02-20T00:00:23.703Z,20.15
2019-02-20T00:01:42.506Z,18.90
2019-02-20T00:02:58.808Z,20.02
2019-02-20T00:04:15.961Z,20.02
2019-02-20T00:05:32.495Z,20.15
2019-02-20T00:06:49.299Z,19.48
2019-02-20T00:08:06.183Z,19.27
2019-02-20T00:09:22.686Z,19.10
2019-02-20T00:10:38.989Z,18.32
2019-02-20T00:11:55.589Z,21.00
2019-02-20T00:13:12.489Z,21.65
2019-02-20T00:14:28.874Z,22.05
2019-02-20T00:15:44.056Z,23.90
2019-02-20T00:17:08.221Z,23.52
2019-02-20T00:18:25.369Z,25.35
2019-02-20T00:19:42.780Z,21.75
2019-02-20T00:20:59.321Z,23.92
2019-02-20T00:22:15.696Z,26.10
2019-02-20T00:23:32.971Z,24.25
2019-02-20T00:24:50.185Z,25.50
2019-02-20T00:26:06.655Z,24.10
2019-02-20T00:27:24.513Z,22.73
2019-02-20T00:28:41.344Z,24.63
2019-02-20T00:29:58.508Z,25.50
2019-02-20T00:31:15.076Z,25.52
2019-02-20T00:32:31.508Z,25.68
2019-02-20T00:33:48.476Z,25.12
2019-02-20T00:35:05.404Z,23.83
2019-02-20T00:36:21.973Z,27.27
2019-02-20T00:37:39.141Z,26.15
2019-02-20T00:38:55.438Z,26.40
2019-02-20T00:40:11.975Z,27.02
2019-02-20T00:41:29.441Z,27.85
2019-02-20T00:42:46.348Z,25.20
2019-02-20T00:44:21.654Z,24.47
2019-02-20T00:45:57.197Z,25.70
2019-02-20T00:47:32.500Z,22.58
2019-02-20T00:48:56.862Z,22.37
2019-02-20T00:50:14.217Z,22.90
2019-02-20T00:53:17.314Z,21.45
2019-02-20T00:54:33.993Z,21.27
2019-02-20T00:55:50.657Z,23.65
2019-02-20T00:57:07.140Z,19.98
2019-02-20T00:58:22.430Z,21.97
2019-02-20T00:59:46.575Z,21.45
2019-02-20T01:01:03.536Z,23.25
2019-02-20T01:02:19.909Z,24.23
2019-02-20T01:03:36.662Z,22.67
2019-02-20T01:04:53.189Z,23.55
2019-02-20T01:06:09.611Z,22.20
2019-02-20T01:07:26.301Z,24.87
2019-02-20T01:08:42.789Z,24.72
2019-02-20T01:09:59.234Z,24.37
2019-02-20T01:11:15.628Z,24.63
2019-02-20T01:12:32.103Z,29.05
2019-02-20T01:13:48.605Z,24.50
2019-02-20T01:15:05.286Z,25.50
2019-02-20T01:16:24.501Z,27.60
2019-02-20T01:17:42.158Z,25.85
2019-02-20T01:18:58.560Z,26.90
2019-02-20T01:20:15.048Z,23.62
2019-02-20T01:21:31.640Z,23.18
2019-02-20T01:22:48.070Z,24.10
2019-02-20T01:24:04.358Z,22.52
2019-02-20T01:25:20.880Z,21.00
2019-02-20T01:26:38.148Z,21.27
2019-02-20T01:27:54.781Z,22.05
2019-02-20T01:29:11.276Z,21.97
2019-02-20T01:30:28.056Z,21.55
2019-02-20T01:31:44.544Z,20.55
2019-02-20T01:33:01.775Z,21.37
2019-02-20T01:34:18.969Z,20.43
2019-02-20T01:35:35.369Z,21.40
2019-02-20T01:36:51.718Z,21.30
2019-02-20T01:38:08.642Z,23.77
2019-02-20T01:39:25.757Z,21.82
2019-02-20T01:40:42.844Z,22.50
2019-02-20T01:41:59.520Z,20.97
2019-02-20T01:43:15.825Z,21.23
2019-02-20T01:44:32.527Z,21.33
2019-02-20T01:45:48.916Z,23.98
2019-02-20T01:47:06.477Z,25.15
2019-02-20T01:48:23.658Z,23.30
2019-02-20T01:49:40.177Z,22.40
2019-02-20T01:50:57.150Z,23.00
2019-02-20T01:52:13.534Z,22.73
2019-02-20T01:53:29.841Z,21.00
2019-02-20T01:54:46.757Z,22.22
2019-02-20T01:56:03.361Z,22.22
2019-02-20T01:57:20.290Z,21.33
2019-02-20T01:58:36.820Z,21.42
2019-02-20T01:59:53.657Z,21.80
2019-02-20T02:01:10.849Z,22.93
2019-02-20T02:02:27.383Z,22.80
2019-02-20T02:03:43.671Z,25.00
2019-02-20T02:05:00.220Z,25.68
2019-02-20T02:06:16.774Z,23.57
2019-02-20T02:07:33.341Z,24.37
2019-02-20T02:08:49.753Z,23.60
2019-02-20T02:10:06.817Z,21.97
2019-02-20T02:11:23.328Z,22.27
2019-02-20T02:12:39.925Z,23.27
2019-02-20T02:13:56.363Z,24.50
2019-02-20T02:15:20.059Z,25.62
2019-02-20T02:16:31.321Z,24.05
2019-02-20T02:17:47.637Z,22.20
2019-02-20T02:19:04.201Z,22.98
2019-02-20T02:20:21.205Z,23.55
2019-02-20T02:21:38.385Z,23.47
2019-02-20T02:22:54.689Z,23.00
2019-02-20T02:24:11.278Z,22.42
2019-02-20T02:25:28.353Z,22.30
2019-02-20T02:26:44.879Z,22.95
2019-02-20T02:28:01.549Z,20.95
2019-02-20T02:29:17.997Z,21.02
2019-02-20T02:30:34.644Z,22.85
2019-02-20T02:31:51.299Z,21.60
2019-02-20T02:33:08.457Z,21.27
2019-02-20T02:34:26.361Z,22.55
2019-02-20T02:35:43.097Z,23.27
2019-02-20T02:36:59.596Z,25.10
2019-02-20T02:38:16.323Z,23.10
2019-02-20T02:39:32.826Z,23.80
2019-02-20T02:40:47.968Z,23.32
2019-02-20T02:42:12.148Z,24.27
2019-02-20T02:43:28.448Z,26.37
2019-02-20T02:44:45.850Z,23.12
2019-02-20T02:46:02.927Z,27.58
2019-02-20T02:47:21.560Z,25.52
2019-02-20T02:48:38.123Z,25.80
2019-02-20T02:49:54.585Z,26.62
2019-02-20T02:51:11.609Z,25.65
2019-02-20T02:52:28.221Z,21.97
2019-02-20T02:53:44.525Z,23.45
2019-02-20T02:55:01.015Z,22.30
2019-02-20T02:56:18.212Z,23.35
2019-02-20T02:57:34.903Z,22.85
2019-02-20T02:58:52.074Z,22.62
2019-02-20T03:00:08.651Z,24.63
2019-02-20T03:01:25.102Z,23.70
2019-02-20T03:02:41.511Z,25.12
2019-02-20T03:03:57.971Z,20.72
2019-02-20T03:05:14.300Z,24.80
2019-02-20T03:06:31.034Z,24.20
2019-02-20T03:07:46.225Z,22.15
2019-02-20T03:09:10.393Z,21.52
2019-02-20T03:10:36.125Z,23.95
2019-02-20T03:11:52.606Z,21.70
2019-02-20T03:13:09.832Z,21.70
2019-02-20T03:14:26.376Z,22.17
2019-02-20T03:15:43.838Z,21.17
2019-02-20T03:17:00.247Z,23.80
2019-02-20T03:18:16.749Z,27.35
2019-02-20T03:19:33.084Z,26.68
2019-02-20T03:20:49.764Z,23.40
2019-02-20T03:22:06.281Z,22.45
2019-02-20T03:23:23.152Z,23.60
2019-02-20T03:24:39.860Z,22.60
2019-02-20T03:25:56.808Z,24.67
2019-02-20T03:27:13.147Z,27.40
2019-02-20T03:28:29.845Z,25.45
2019-02-20T03:29:47.148Z,24.43
2019-02-20T03:31:04.378Z,23.70
2019-02-20T03:32:20.821Z,22.98
2019-02-20T03:33:37.607Z,24.57
2019-02-20T03:34:54.073Z,25.00
2019-02-20T03:36:10.704Z,23.73
2019-02-20T03:37:27.392Z,23.27
2019-02-20T03:38:43.753Z,22.42
2019-02-20T03:40:00.802Z,21.82
2019-02-20T03:41:18.650Z,22.32
2019-02-20T03:42:35.465Z,23.27
2019-02-20T03:43:52.037Z,22.85
2019-02-20T03:45:08.664Z,25.00
2019-02-20T03:46:25.076Z,24.00
2019-02-20T03:47:41.944Z,23.75
2019-02-20T03:48:58.495Z,21.62
2019-02-20T03:50:14.941Z,21.65
2019-02-20T03:51:31.620Z,21.82
2019-02-20T03:52:47.978Z,21.27
2019-02-20T03:54:04.381Z,23.77
2019-02-20T03:55:21.035Z,22.85
2019-02-20T03:56:39.464Z,22.40
2019-02-20T03:57:56.731Z,19.87
2019-02-20T03:59:13.255Z,20.82
2019-02-20T04:00:29.929Z,22.07
2019-02-20T04:01:47.051Z,20.62
2019-02-20T04:03:03.424Z,22.13
2019-02-20T04:04:20.533Z,22.15
2019-02-20T04:05:36.948Z,22.20
2019-02-20T04:06:53.386Z,21.48
2019-02-20T04:08:09.736Z,23.50
2019-02-20T04:09:26.250Z,24.32
2019-02-20T04:10:42.840Z,22.02
2019-02-20T04:11:59.363Z,21.68
2019-02-20T04:13:15.897Z,22.82
2019-02-20T04:14:32.396Z,20.62
2019-02-20T04:15:48.728Z,21.27
2019-02-20T04:17:05.783Z,20.45
2019-02-20T04:18:22.673Z,21.73
2019-02-20T04:19:38.940Z,21.30
2019-02-20T04:20:55.553Z,21.37
2019-02-20T04:22:12.681Z,20.55
2019-02-20T04:23:29.034Z,22.90
2019-02-20T04:24:45.522Z,24.20
2019-02-20T04:26:02.683Z,22.37
2019-02-20T04:27:18.969Z,21.27
2019-02-20T04:28:35.629Z,20.80
2019-02-20T04:29:52.259Z,23.25
2019-02-20T04:31:09.417Z,22.75
2019-02-20T04:32:26.378Z,23.55
2019-02-20T04:33:42.701Z,20.88
2019-02-20T04:34:59.133Z,22.77
2019-02-20T04:36:15.806Z,23.80
2019-02-20T04:37:32.682Z,25.30
2019-02-20T04:38:49.104Z,24.02
2019-02-20T04:40:05.568Z,23.40
2019-02-20T04:41:20.816Z,23.40
2019-02-20T04:42:44.917Z,23.85
2019-02-20T04:44:02.190Z,24.45
2019-02-20T04:45:18.853Z,22.32
2019-02-20T04:46:35.289Z,22.60
2019-02-20T04:47:51.771Z,22.22
2019-02-20T04:49:08.496Z,22.32
2019-02-20T04:50:25.209Z,22.50
2019-02-20T04:51:41.893Z,22.10
2019-02-20T04:52:58.201Z,21.20
2019-02-20T04:54:15.418Z,21.35
2019-02-20T04:55:31.759Z,22.32
2019-02-20T04:56:48.615Z,19.65
2019-02-20T04:58:05.044Z,21.12
2019-02-20T04:59:22.257Z,21.57
2019-02-20T05:00:39.078Z,21.70
2019-02-20T05:01:55.597Z,18.80
2019-02-20T05:03:11.861Z,21.20
2019-02-20T05:04:28.729Z,19.37
2019-02-20T05:05:48.847Z,18.20
2019-02-20T05:07:05.141Z,23.45
2019-02-20T05:08:21.907Z,20.35
2019-02-20T05:09:39.778Z,19.77
2019-02-20T05:10:57.918Z,19.62
2019-02-20T05:12:14.430Z,18.48
2019-02-20T05:13:30.818Z,19.40
2019-02-20T05:14:47.280Z,20.85
2019-02-20T05:16:03.793Z,19.32
2019-02-20T05:17:21.035Z,20.02
2019-02-20T05:18:37.641Z,21.35
2019-02-20T05:19:53.996Z,21.62
2019-02-20T05:21:10.578Z,20.72
2019-02-20T05:22:27.900Z,20.02
2019-02-20T05:23:44.529Z,20.85
2019-02-20T05:25:01.244Z,21.17
2019-02-20T05:26:18.933Z,20.62
2019-02-20T05:27:35.294Z,21.55
2019-02-20T05:28:51.913Z,20.57
2019-02-20T05:30:08.200Z,20.97
2019-02-20T05:31:24.749Z,22.27
2019-02-20T05:32:41.244Z,20.57
2019-02-20T05:33:58.031Z,21.37
2019-02-20T05:35:14.497Z,21.02
2019-02-20T05:36:31.479Z,20.92
2019-02-20T05:37:48.138Z,20.40
2019-02-20T05:39:05.421Z,22.85
2019-02-20T05:40:24.777Z,20.55
2019-02-20T05:41:41.878Z,20.27
2019-02-20T05:42:59.112Z,19.77
2019-02-20T05:44:16.351Z,20.40
2019-02-20T05:45:33.988Z,19.75
2019-02-20T05:46:50.829Z,20.88
2019-02-20T05:48:08.119Z,20.23
2019-02-20T05:49:24.504Z,20.17
2019-02-20T05:50:40.997Z,20.68
2019-02-20T05:51:57.235Z,22.65
2019-02-20T05:53:13.853Z,21.00
2019-02-20T05:54:18.999Z,21.40
2019-02-20T05:55:24.105Z,23.55
2019-02-20T05:56:29.143Z,23.85
2019-02-20T05:57:36.415Z,22.82
2019-02-20T05:58:41.230Z,22.90
2019-02-20T05:59:46.378Z,21.97
2019-02-20T06:00:51.645Z,22.35
2019-02-20T06:01:56.681Z,22.80
2019-02-20T06:03:02.008Z,21.75
2019-02-20T06:04:08.182Z,22.40
2019-02-20T06:05:13.259Z,23.07
2019-02-20T06:06:18.402Z,24.15
2019-02-20T06:07:23.514Z,24.60
2019-02-20T06:08:28.546Z,24.32
2019-02-20T06:09:33.578Z,25.17
2019-02-20T06:10:38.711Z,24.05
2019-02-20T06:11:44.114Z,21.80
2019-02-20T06:12:49.214Z,21.07
2019-02-20T06:13:56.361Z,20.60
2019-02-20T06:15:01.453Z,21.25
2019-02-20T06:16:06.622Z,20.30
2019-02-20T06:17:11.634Z,21.87
2019-02-20T06:18:16.761Z,23.27
2019-02-20T06:19:21.893Z,19.77
2019-02-20T06:20:27.014Z,20.60
2019-02-20T06:21:32.133Z,21.75
2019-02-20T06:22:38.308Z,20.10
2019-02-20T06:23:43.438Z,20.72
2019-02-20T06:24:48.560Z,20.90
2019-02-20T06:25:53.706Z,20.75
2019-02-20T06:26:58.849Z,21.75
2019-02-20T06:28:04.192Z,22.85
2019-02-20T06:29:09.243Z,21.62
2019-02-20T06:30:14.385Z,21.10
2019-02-20T06:31:19.521Z,21.20
2019-02-20T06:32:24.571Z,19.90
2019-02-20T06:33:29.612Z,22.87
2019-02-20T06:34:34.758Z,23.02
2019-02-20T06:35:39.811Z,21.77
2019-02-20T06:36:44.873Z,22.27
2019-02-20T06:37:49.915Z,21.68
2019-02-20T06:38:55.063Z,21.12
2019-02-20T06:40:00.308Z,22.13
2019-02-20T06:41:05.546Z,22.32
2019-02-20T06:42:13.542Z,23.47
2019-02-20T06:43:18.589Z,22.82
2019-02-20T06:44:23.662Z,24.65
2019-02-20T06:45:28.769Z,23.95
2019-02-20T06:46:33.976Z,24.27
2019-02-20T06:47:39.084Z,23.38
2019-02-20T06:48:44.223Z,23.75
2019-02-20T06:49:49.250Z,24.67
2019-02-20T06:50:54.393Z,24.72
2019-02-20T06:51:59.504Z,25.52
2019-02-20T06:53:04.623Z,25.55
2019-02-20T06:54:09.796Z,24.60
2019-02-20T06:55:14.985Z,26.23
2019-02-20T06:56:20.576Z,27.25
2019-02-20T06:57:25.593Z,34.00
2019-02-20T06:58:30.961Z,30.02
2019-02-20T06:59:35.989Z,27.77
2019-02-20T07:00:41.109Z,27.58
2019-02-20T07:01:46.354Z,27.90
2019-02-20T07:02:51.475Z,28.27
2019-02-20T07:03:56.586Z,28.75
2019-02-20T07:05:35.469Z,28.12
2019-02-20T07:07:13.812Z,25.65
2019-02-20T07:08:54.459Z,25.20
2019-02-20T07:10:39.544Z,25.30
2019-02-20T07:12:14.418Z,24.40
2019-02-20T07:13:43.483Z,24.15
2019-02-20T07:15:29.554Z,24.70
2019-02-20T07:17:14.646Z,26.12
2019-02-20T07:18:54.645Z,25.60
2019-02-20T07:20:25.274Z,26.73
2019-02-20T07:22:23.680Z,26.45
2019-02-20T07:23:52.141Z,25.17
2019-02-20T07:25:28.048Z,25.25
2019-02-20T07:26:55.667Z,22.58
2019-02-20T07:28:30.012Z,23.18
2019-02-20T07:30:00.535Z,21.60
2019-02-20T07:31:07.083Z,20.62
2019-02-20T07:32:14.744Z,23.30
2019-02-20T07:33:19.880Z,21.75
2019-02-20T07:34:24.924Z,21.35
2019-02-20T07:35:30.033Z,21.45
2019-02-20T07:36:35.153Z,23.27
2019-02-20T07:37:40.276Z,20.27
2019-02-20T07:38:45.375Z,21.50
2019-02-20T07:39:51.768Z,20.77
2019-02-20T07:40:56.906Z,19.92
2019-02-20T07:42:02.038Z,19.52
2019-02-20T07:43:08.474Z,20.00
2019-02-20T07:44:13.578Z,19.35
2019-02-20T07:45:18.628Z,20.30
2019-02-20T07:46:23.824Z,21.70
2019-02-20T07:47:29.000Z,21.55
2019-02-20T07:48:34.156Z,21.23
2019-02-20T07:49:39.270Z,20.10
2019-02-20T07:50:44.406Z,19.62
2019-02-20T07:51:49.513Z,20.43
2019-02-20T07:52:54.628Z,21.85
2019-02-20T07:53:59.823Z,20.97
2019-02-20T07:55:12.910Z,21.57
2019-02-20T07:56:11.803Z,19.65
2019-02-20T07:57:16.933Z,19.67
2019-02-20T07:58:22.079Z,17.95
2019-02-20T07:59:27.177Z,18.70
2019-02-20T08:00:33.388Z,16.52
2019-02-20T08:01:38.604Z,17.55
2019-02-20T08:02:43.709Z,16.77
2019-02-20T08:03:48.846Z,17.82
2019-02-20T08:04:54.978Z,16.48
2019-02-20T08:06:00.151Z,16.25
2019-02-20T08:07:05.300Z,17.45
2019-02-20T08:08:10.442Z,16.32
2019-02-20T08:09:15.600Z,16.60
2019-02-20T08:10:20.790Z,16.30
2019-02-20T08:11:25.913Z,15.55
2019-02-20T08:12:31.035Z,15.70
2019-02-20T08:13:39.218Z,20.55
2019-02-20T08:14:42.901Z,15.72
2019-02-20T08:15:48.025Z,14.43
2019-02-20T08:16:53.172Z,13.32
2019-02-20T08:17:58.232Z,11.55
2019-02-20T08:19:03.396Z,12.45
2019-02-20T08:20:10.181Z,12.05
2019-02-20T08:21:15.373Z,13.43
2019-02-20T08:22:20.574Z,11.80
2019-02-20T08:23:25.760Z,11.95
2019-02-20T08:24:32.548Z,11.65
2019-02-20T08:25:37.661Z,12.05
2019-02-20T08:26:42.780Z,11.18
2019-02-20T08:27:47.881Z,11.43
2019-02-20T08:28:52.987Z,12.03
2019-02-20T08:29:58.124Z,12.07
2019-02-20T08:31:03.279Z,11.30
2019-02-20T08:32:08.368Z,12.03
2019-02-20T08:33:13.980Z,11.30
2019-02-20T08:34:19.046Z,11.70
2019-02-20T08:35:24.192Z,12.33
2019-02-20T08:36:29.320Z,11.75
2019-02-20T08:37:34.444Z,12.13
2019-02-20T08:38:39.555Z,11.57
2019-02-20T08:39:44.692Z,10.08
2019-02-20T08:40:49.753Z,10.93
2019-02-20T08:41:54.800Z,12.15
2019-02-20T08:42:59.826Z,11.50
2019-02-20T08:44:05.977Z,11.83
2019-02-20T08:45:11.334Z,12.58
2019-02-20T08:46:16.437Z,12.05
2019-02-20T08:47:21.557Z,12.05
2019-02-20T08:48:26.622Z,12.18
2019-02-20T08:49:31.647Z,11.18
2019-02-20T08:50:36.777Z,12.80
2019-02-20T08:51:41.868Z,11.43
2019-02-20T08:52:47.054Z,12.23
2019-02-20T08:53:52.186Z,12.30
2019-02-20T08:54:57.219Z,11.83
2019-02-20T08:56:02.317Z,12.23
2019-02-20T08:57:07.520Z,11.93
2019-02-20T08:58:12.678Z,13.15
2019-02-20T08:59:17.779Z,12.98
2019-02-20T09:00:22.825Z,12.10
2019-02-20T09:01:28.013Z,13.90
2019-02-20T09:02:33.126Z,12.45
2019-02-20T09:03:38.208Z,12.53
2019-02-20T09:04:43.237Z,11.85
2019-02-20T09:05:48.353Z,12.63
2019-02-20T09:06:53.359Z,14.18
2019-02-20T09:07:59.454Z,13.08
2019-02-20T09:09:06.391Z,12.50
2019-02-20T09:10:13.140Z,11.95
2019-02-20T09:11:18.209Z,11.78
2019-02-20T09:12:23.311Z,12.47
2019-02-20T09:13:28.425Z,11.18
2019-02-20T09:14:34.576Z,11.30
2019-02-20T09:15:39.655Z,12.15
2019-02-20T09:16:44.720Z,12.10
2019-02-20T09:17:49.747Z,12.88
2019-02-20T09:18:54.780Z,12.07
2019-02-20T09:19:59.938Z,12.05
2019-02-20T09:21:05.063Z,12.37
2019-02-20T09:22:10.122Z,12.80
2019-02-20T09:23:15.129Z,12.68
2019-02-20T09:24:20.266Z,12.05
2019-02-20T09:25:25.368Z,12.18
2019-02-20T09:26:30.504Z,12.60
2019-02-20T09:27:35.545Z,13.20
2019-02-20T09:28:40.638Z,12.25
2019-02-20T09:29:46.881Z,13.30
2019-02-20T09:30:51.941Z,12.05
2019-02-20T09:31:57.061Z,12.30
2019-02-20T09:33:02.240Z,14.47
2019-02-20T09:34:07.502Z,12.28
2019-02-20T09:35:12.951Z,12.58
2019-02-20T09:36:17.984Z,11.55
2019-02-20T09:37:23.167Z,11.45
2019-02-20T09:38:29.363Z,11.30
2019-02-20T09:39:36.176Z,10.70
2019-02-20T09:40:41.341Z,12.25
2019-02-20T09:41:46.484Z,12.65
2019-02-20T09:42:51.773Z,11.03
2019-02-20T09:43:56.837Z,12.28
2019-02-20T09:45:01.990Z,11.45
2019-02-20T09:46:08.180Z,12.13
2019-02-20T09:47:13.605Z,12.37
2019-02-20T09:48:19.768Z,12.93
2019-02-20T09:49:24.891Z,12.18
2019-02-20T09:50:29.944Z,11.57
2019-02-20T09:51:34.979Z,11.15
2019-02-20T09:52:40.053Z,11.83
2019-02-20T09:53:45.161Z,11.22
2019-02-20T09:54:50.224Z,11.12
2019-02-20T09:55:55.353Z,11.95
2019-02-20T09:57:01.586Z,11.40
2019-02-20T09:58:06.724Z,12.73
2019-02-20T09:59:11.860Z,11.45
2019-02-20T10:00:16.976Z,12.28
2019-02-20T10:01:22.104Z,11.35
2019-02-20T10:02:27.292Z,13.80
2019-02-20T10:03:32.468Z,11.38
2019-02-20T10:04:37.592Z,11.05
2019-02-20T10:05:42.707Z,11.30
2019-02-20T10:06:47.899Z,11.30
2019-02-20T10:07:52.982Z,10.82
2019-02-20T10:08:58.049Z,10.70
2019-02-20T10:10:03.236Z,11.95
2019-02-20T10:11:08.402Z,12.25
2019-02-20T10:12:13.432Z,10.25
2019-02-20T10:13:18.536Z,11.35
2019-02-20T10:14:23.614Z,10.30
2019-02-20T10:15:29.072Z,12.13
2019-02-20T10:16:34.279Z,11.20
2019-02-20T10:17:39.481Z,13.05
2019-02-20T10:18:44.645Z,13.15
2019-02-20T10:19:50.897Z,10.82
2019-02-20T10:20:56.232Z,12.58
2019-02-20T10:22:01.393Z,13.18
2019-02-20T10:23:06.590Z,14.40
2019-02-20T10:24:11.895Z,13.90
2019-02-20T10:25:16.994Z,12.37
2019-02-20T10:26:22.050Z,13.85
2019-02-20T10:27:27.145Z,12.45
2019-02-20T10:28:32.213Z,13.43
2019-02-20T10:29:37.243Z,12.78
2019-02-20T10:30:42.248Z,14.95
2019-02-20T10:31:50.035Z,14.40
2019-02-20T10:32:55.068Z,15.32
2019-02-20T10:34:00.104Z,15.25
2019-02-20T10:35:05.752Z,15.70
2019-02-20T10:36:10.871Z,13.68
2019-02-20T10:37:16.001Z,14.45
2019-02-20T10:38:21.169Z,12.90
2019-02-20T10:39:26.264Z,12.82
2019-02-20T10:40:31.482Z,14.00
2019-02-20T10:41:36.878Z,13.28
2019-02-20T10:42:41.990Z,14.58
2019-02-20T10:43:47.041Z,13.83
2019-02-20T10:44:52.183Z,11.50
2019-02-20T10:45:57.295Z,14.75
2019-02-20T10:47:02.668Z,13.95
2019-02-20T10:48:07.873Z,14.83
2019-02-20T10:49:13.045Z,13.32
2019-02-20T10:50:18.153Z,13.62
2019-02-20T10:51:23.273Z,14.50
2019-02-20T10:52:28.324Z,12.85
2019-02-20T10:53:33.377Z,14.98
2019-02-20T10:54:38.548Z,14.93
2019-02-20T10:55:43.688Z,15.30
2019-02-20T10:56:48.702Z,14.13
2019-02-20T10:57:53.793Z,15.60
2019-02-20T10:58:58.921Z,13.20
2019-02-20T11:00:07.080Z,10.20
2019-02-20T11:01:13.813Z,10.03
2019-02-20T11:02:18.989Z,11.50
2019-02-20T11:03:24.102Z,11.53
2019-02-20T11:04:30.831Z,12.25
2019-02-20T11:05:36.220Z,13.50
2019-02-20T11:06:41.388Z,13.48
2019-02-20T11:07:46.577Z,13.20
2019-02-20T11:08:51.786Z,14.68
2019-02-20T11:09:56.902Z,13.55
2019-02-20T11:11:02.009Z,12.85
2019-02-20T11:12:08.232Z,12.50
2019-02-20T11:13:13.571Z,14.35
2019-02-20T11:14:18.762Z,12.63
2019-02-20T11:15:23.822Z,12.70
2019-02-20T11:16:29.046Z,12.63
2019-02-20T11:17:34.147Z,13.03
2019-02-20T11:18:39.245Z,12.80
2019-02-20T11:19:44.390Z,12.80
2019-02-20T11:20:49.454Z,12.60
2019-02-20T11:21:54.557Z,13.90
2019-02-20T11:22:59.585Z,14.10
2019-02-20T11:24:04.696Z,12.45
2019-02-20T11:25:12.926Z,11.70
2019-02-20T11:26:18.750Z,12.75
2019-02-20T11:27:24.003Z,11.68
2019-02-20T11:28:29.177Z,12.55
2019-02-20T11:29:34.315Z,12.00
2019-02-20T11:30:39.477Z,11.70
2019-02-20T11:31:44.596Z,11.97
2019-02-20T11:32:49.655Z,12.25
2019-02-20T11:33:54.769Z,12.28
2019-02-20T11:34:59.870Z,12.10
2019-02-20T11:36:05.020Z,11.68
2019-02-20T11:37:10.219Z,11.85
2019-02-20T11:38:16.487Z,12.30
2019-02-20T11:39:21.611Z,12.05
2019-02-20T11:40:26.680Z,10.72
2019-02-20T11:41:31.893Z,11.53
2019-02-20T11:42:37.013Z,10.85
2019-02-20T11:43:42.127Z,10.58
2019-02-20T11:44:47.258Z,10.65
2019-02-20T11:45:52.384Z,10.80
2019-02-20T11:46:57.399Z,10.75
2019-02-20T11:48:02.532Z,11.55
2019-02-20T11:49:07.642Z,11.28
2019-02-20T11:50:12.856Z,9.10
2019-02-20T11:51:18.008Z,11.08
2019-02-20T11:52:23.144Z,10.85
2019-02-20T11:53:36.833Z,9.20
2019-02-20T11:54:35.067Z,8.18
2019-02-20T11:55:51.441Z,7.75
2019-02-20T11:57:08.476Z,9.38
2019-02-20T11:58:25.048Z,8.53
2019-02-20T11:59:41.564Z,8.93
2019-02-20T12:00:58.261Z,8.03
2019-02-20T12:02:15.889Z,8.55
2019-02-20T12:03:34.363Z,8.93
2019-02-20T12:04:51.596Z,9.63
2019-02-20T12:06:08.094Z,11.63
2019-02-20T12:07:25.442Z,8.98
2019-02-20T12:08:30.582Z,9.53
2019-02-20T12:09:35.694Z,8.43
2019-02-20T12:10:41.005Z,9.18
2019-02-20T12:11:46.137Z,9.13
2019-02-20T12:12:51.278Z,9.20
2019-02-20T12:13:57.467Z,8.05
2019-02-20T12:15:03.666Z,8.58
2019-02-20T12:16:08.833Z,9.45
2019-02-20T12:17:13.944Z,11.68
2019-02-20T12:18:19.176Z,12.98
2019-02-20T12:19:24.286Z,12.40
2019-02-20T12:20:29.417Z,13.75
2019-02-20T12:21:37.377Z,13.60
2019-02-20T12:22:42.596Z,12.63
2019-02-20T12:23:47.794Z,15.03
2019-02-20T12:24:54.784Z,14.53
2019-02-20T12:25:59.686Z,14.45
2019-02-20T12:27:04.797Z,14.13
2019-02-20T12:28:09.906Z,13.25
2019-02-20T12:29:15.049Z,13.58
2019-02-20T12:30:20.176Z,13.25
2019-02-20T12:31:25.299Z,13.15
2019-02-20T12:32:30.973Z,12.98
2019-02-20T12:33:36.229Z,17.55
2019-02-20T12:34:41.372Z,13.25
2019-02-20T12:35:46.480Z,12.80
2019-02-20T12:36:51.607Z,10.28
2019-02-20T12:37:56.653Z,14.70
2019-02-20T12:39:01.773Z,9.88
2019-02-20T12:40:08.541Z,9.55
2019-02-20T12:41:13.668Z,10.05
2019-02-20T12:42:18.774Z,10.78
2019-02-20T12:43:23.929Z,10.30
2019-02-20T12:44:29.042Z,9.95
2019-02-20T12:45:34.209Z,9.55
2019-02-20T12:46:39.365Z,10.13
2019-02-20T12:47:44.405Z,9.83
2019-02-20T12:48:49.462Z,10.25
2019-02-20T12:49:57.605Z,10.48
2019-02-20T12:51:02.753Z,10.50
2019-02-20T12:52:07.832Z,14.25
2019-02-20T12:53:13.002Z,10.90
2019-02-20T12:54:18.209Z,10.98
2019-02-20T12:55:23.366Z,11.03
2019-02-20T12:56:28.553Z,11.73
2019-02-20T12:57:34.764Z,13.22
2019-02-20T12:58:39.942Z,10.75
2019-02-20T12:59:45.151Z,11.08
2019-02-20T13:00:50.252Z,13.35
2019-02-20T13:01:55.296Z,11.60
2019-02-20T13:03:00.473Z,10.80
2019-02-20T13:04:05.591Z,12.28
2019-02-20T13:05:10.864Z,10.05
2019-02-20T13:06:16.037Z,10.55
2019-02-20T13:07:21.144Z,10.93
2019-02-20T13:08:26.271Z,12.37
2019-02-20T13:09:33.180Z,10.58
2019-02-20T13:10:38.462Z,9.20
2019-02-20T13:11:43.593Z,9.75
2019-02-20T13:12:49.796Z,9.90
2019-02-20T13:13:54.918Z,11.35
2019-02-20T13:15:00.033Z,9.33
2019-02-20T13:16:09.578Z,10.30
2019-02-20T13:17:12.105Z,9.80
2019-02-20T13:18:17.314Z,9.78
2019-02-20T13:19:22.581Z,10.38
2019-02-20T13:20:27.758Z,11.38
2019-02-20T13:21:32.802Z,9.85
2019-02-20T13:22:37.869Z,10.15
2019-02-20T13:23:43.015Z,9.75
2019-02-20T13:24:48.148Z,9.70
2019-02-20T13:25:53.282Z,10.72
2019-02-20T13:26:58.399Z,9.43
2019-02-20T13:28:03.545Z,11.63
2019-02-20T13:29:08.750Z,9.18
2019-02-20T13:30:13.925Z,11.65
2019-02-20T13:31:19.179Z,9.08
2019-02-20T13:32:24.330Z,10.78
2019-02-20T13:33:29.444Z,9.60
2019-02-20T13:34:34.571Z,9.28
2019-02-20T13:35:39.710Z,10.18
2019-02-20T13:36:44.789Z,12.75
2019-02-20T13:37:49.838Z,11.55
2019-02-20T13:38:54.956Z,11.93
2019-02-20T13:40:00.216Z,9.13
2019-02-20T13:41:05.466Z,9.60
2019-02-20T13:42:10.598Z,9.88
2019-02-20T13:43:16.086Z,9.78
2019-02-20T13:44:21.512Z,9.23
2019-02-20T13:45:26.664Z,9.35
2019-02-20T13:46:31.760Z,9.70
2019-02-20T13:47:36.904Z,9.05
2019-02-20T13:48:41.929Z,9.20
2019-02-20T13:49:47.053Z,9.80
2019-02-20T13:50:52.304Z,11.55
2019-02-20T13:51:57.465Z,8.73
2019-02-20T13:53:02.673Z,9.30
2019-02-20T13:54:08.914Z,10.03
2019-02-20T13:55:14.007Z,9.50
2019-02-20T13:56:19.135Z,10.05
2019-02-20T13:57:24.391Z,9.18
2019-02-20T13:58:29.608Z,9.50
2019-02-20T13:59:34.697Z,9.45
2019-02-20T14:00:40.933Z,9.88
2019-02-20T14:01:46.029Z,9.15
2019-02-20T14:02:51.510Z,8.28
2019-02-20T14:03:56.928Z,8.58
2019-02-20T14:05:02.110Z,9.80
2019-02-20T14:06:07.255Z,8.43
2019-02-20T14:07:12.484Z,8.30
2019-02-20T14:08:17.609Z,8.43
2019-02-20T14:09:22.763Z,9.10
2019-02-20T14:10:27.924Z,9.13
2019-02-20T14:11:33.058Z,7.12
2019-02-20T14:12:38.165Z,6.87
2019-02-20T14:13:43.301Z,9.90
2019-02-20T14:14:48.469Z,8.08
2019-02-20T14:15:53.546Z,10.55
2019-02-20T14:16:58.657Z,8.93
2019-02-20T14:18:03.861Z,8.03
2019-02-20T14:19:10.110Z,9.10
2019-02-20T14:20:15.303Z,8.13
2019-02-20T14:21:20.369Z,8.93
2019-02-20T14:22:25.765Z,7.12
2019-02-20T14:23:31.036Z,8.33
2019-02-20T14:24:36.136Z,7.83
2019-02-20T14:25:44.363Z,8.18
2019-02-20T14:26:49.153Z,8.18
2019-02-20T14:27:54.341Z,7.85
2019-02-20T14:28:59.561Z,8.10
2019-02-20T14:30:04.910Z,7.97
2019-02-20T14:31:11.120Z,8.48
2019-02-20T14:32:16.198Z,7.40
2019-02-20T14:33:21.420Z,7.37
2019-02-20T14:34:26.612Z,8.08
2019-02-20T14:35:31.745Z,7.30
2019-02-20T14:36:36.880Z,7.40
2019-02-20T14:37:42.366Z,7.60
2019-02-20T14:38:47.556Z,7.03
2019-02-20T14:39:52.689Z,6.67
2019-02-20T14:40:57.788Z,8.13
2019-02-20T14:42:03.191Z,7.25
2019-02-20T14:43:08.540Z,8.43
2019-02-20T14:44:13.722Z,7.60
2019-02-20T14:45:18.890Z,7.42
2019-02-20T14:46:24.070Z,6.97
2019-02-20T14:47:29.192Z,7.83
2019-02-20T14:48:34.361Z,6.67
2019-02-20T14:49:39.489Z,6.60
2019-02-20T14:50:44.596Z,6.78
2019-02-20T14:51:49.739Z,7.17
2019-02-20T14:52:54.894Z,7.20
2019-02-20T14:54:00.128Z,7.78
2019-02-20T14:55:05.297Z,7.08
2019-02-20T14:56:10.534Z,8.55
2019-02-20T14:57:19.674Z,7.20
2019-02-20T14:58:22.578Z,6.47
2019-02-20T14:59:27.745Z,6.80
2019-02-20T15:00:32.862Z,7.03
2019-02-20T15:01:38.462Z,7.22
2019-02-20T15:02:44.083Z,7.10
2019-02-20T15:03:49.253Z,8.80
2019-02-20T15:04:54.390Z,6.75
2019-02-20T15:05:59.531Z,6.83
2019-02-20T15:07:04.713Z,6.95
2019-02-20T15:08:09.955Z,8.45
2019-02-20T15:09:15.077Z,10.45
2019-02-20T15:10:20.249Z,6.47
2019-02-20T15:11:25.450Z,7.33